createdAt,value
2023-03-05T00:00:35.775Z,5.1
2023-03-05T00:01:39.945Z,5.1
2023-03-05T00:02:58.355Z,5.1
2023-03-05T00:04:01.136Z,5.1
2023-03-05T00:05:03.648Z,5
2023-03-05T00:06:07.102Z,5
2023-03-05T00:07:09.890Z,5
2023-03-05T00:08:12.392Z,5
2023-03-05T00:09:16.489Z,5
2023-03-05T00:10:20.444Z,5
2023-03-05T00:11:38.760Z,5.1
2023-03-05T00:12:41.087Z,5.1
2023-03-05T00:13:44.666Z,5.1
2023-03-05T00:15:02.058Z,5.1
2023-03-05T00:17:25.434Z,5.1
2023-03-05T00:18:43.401Z,5.1
2023-03-05T00:19:47.201Z,5
2023-03-05T00:20:50.658Z,5
2023-03-05T00:21:53.175Z,5.1
2023-03-05T00:22:55.614Z,5.1
2023-03-05T00:23:58.951Z,5.1
2023-03-05T00:25:02.490Z,5.1
2023-03-05T00:26:05.158Z,5.1
2023-03-05T00:27:23.143Z,5.1
2023-03-05T00:28:26.495Z,5.1
2023-03-05T00:29:32.576Z,5.1
2023-03-05T00:30:36.078Z,5.1
2023-03-05T00:31:39.911Z,5.2
2023-03-05T00:32:42.547Z,5.2
2023-03-05T00:33:46.064Z,5.2
2023-03-05T00:35:04.116Z,5.2
2023-03-05T00:36:07.380Z,5.2
2023-03-05T00:37:12.312Z,5.2
2023-03-05T00:38:15.102Z,5.2
2023-03-05T00:39:17.755Z,5.2
2023-03-05T00:40:36.522Z,5.2
2023-03-05T00:41:41.068Z,5.2
2023-03-05T00:42:44.084Z,5.2
2023-03-05T00:43:47.359Z,5.2
2023-03-05T00:44:50.540Z,5.2
2023-03-05T00:45:53.885Z,5.2
2023-03-05T00:46:57.923Z,5.2
2023-03-05T00:48:00.672Z,5.2
2023-03-05T00:49:03.686Z,5.2
2023-03-05T00:50:07.398Z,5.2
2023-03-05T00:51:10.573Z,5.2
2023-03-05T00:52:13.411Z,5.2
2023-03-05T00:53:16.778Z,5.3
2023-03-05T00:54:19.830Z,5.3
2023-03-05T00:55:23.279Z,5.3
2023-03-05T00:56:26.965Z,5.3
2023-03-05T00:57:30.353Z,5.3
2023-03-05T00:58:32.791Z,5.3
2023-03-05T00:59:36.143Z,5.3
2023-03-05T01:00:39.265Z,5.3
2023-03-05T01:01:42.142Z,5.3
2023-03-05T01:02:46.567Z,5.3
2023-03-05T01:03:49.394Z,5.3
2023-03-05T01:04:52.635Z,5.3
2023-03-05T01:05:56.493Z,5.3
2023-03-05T01:06:59.283Z,5.3
2023-03-05T01:08:02.656Z,5.3
2023-03-05T01:09:06.108Z,5.2
2023-03-05T01:10:09.580Z,5.3
2023-03-05T01:11:12.658Z,5.2
2023-03-05T01:12:15.562Z,5.2
2023-03-05T01:13:18.376Z,5.2
2023-03-05T01:14:21.475Z,5.2
2023-03-05T01:15:25.002Z,5.2
2023-03-05T01:16:28.462Z,5.2
2023-03-05T01:17:31.127Z,5.2
2023-03-05T01:18:35.247Z,5.2
2023-03-05T01:19:37.798Z,5.2
2023-03-05T01:20:40.946Z,5.2
2023-03-05T01:21:43.173Z,5.2
2023-03-05T01:22:46.400Z,5.2
2023-03-05T01:23:50.128Z,5.2
2023-03-05T01:24:53.030Z,5.2
2023-03-05T01:25:56.120Z,5.1
2023-03-05T01:27:00.200Z,5.2
2023-03-05T01:28:02.855Z,5.2
2023-03-05T01:29:06.004Z,5.1
2023-03-05T01:30:09.619Z,5.1
2023-03-05T01:31:12.526Z,5.1
2023-03-05T01:32:15.688Z,5.1
2023-03-05T01:33:18.968Z,5.1
2023-03-05T01:34:22.875Z,5.1
2023-03-05T01:35:26.254Z,5.1
2023-03-05T01:36:30.103Z,5.1
2023-03-05T01:37:32.817Z,5
2023-03-05T01:38:36.472Z,5
2023-03-05T01:39:39.185Z,5
2023-03-05T01:40:41.997Z,5
2023-03-05T01:41:44.510Z,5
2023-03-05T01:42:48.302Z,5
2023-03-05T01:43:51.190Z,5
2023-03-05T01:44:54.537Z,5
2023-03-05T01:45:58.165Z,4.9
2023-03-05T01:47:02.329Z,4.9
2023-03-05T01:48:05.049Z,4.9
2023-03-05T01:49:08.414Z,4.9
2023-03-05T01:50:12.287Z,4.9
2023-03-05T01:51:15.656Z,4.9
2023-03-05T01:52:18.934Z,4.9
2023-03-05T01:53:22.078Z,4.9
2023-03-05T01:54:25.401Z,4.9
2023-03-05T01:55:28.845Z,4.8
2023-03-05T01:56:31.605Z,4.8
2023-03-05T01:57:34.775Z,4.8
2023-03-05T01:58:38.142Z,4.8
2023-03-05T01:59:40.858Z,4.8
2023-03-05T02:00:44.390Z,4.8
2023-03-05T02:01:47.916Z,4.8
2023-03-05T02:02:50.993Z,4.7
2023-03-05T02:03:54.138Z,4.7
2023-03-05T02:04:57.704Z,4.7
2023-03-05T02:06:01.265Z,4.7
2023-03-05T02:07:04.770Z,4.6
2023-03-05T02:08:08.167Z,4.6
2023-03-05T02:09:10.993Z,4.6
2023-03-05T02:10:14.070Z,4.6
2023-03-05T02:11:17.380Z,4.6
2023-03-05T02:12:20.793Z,4.6
2023-03-05T02:13:23.788Z,4.6
2023-03-05T02:14:26.964Z,4.6
2023-03-05T02:15:30.181Z,4.6
2023-03-05T02:16:33.531Z,4.6
2023-03-05T02:17:37.549Z,4.6
2023-03-05T02:18:40.646Z,4.6
2023-03-05T02:19:43.136Z,4.6
2023-03-05T02:20:46.511Z,4.6
2023-03-05T02:21:50.664Z,4.6
2023-03-05T02:22:54.433Z,4.5
2023-03-05T02:23:57.738Z,4.5
2023-03-05T02:25:00.188Z,4.5
2023-03-05T02:26:03.026Z,4.5
2023-03-05T02:27:05.881Z,4.5
2023-03-05T02:28:09.049Z,4.5
2023-03-05T02:29:11.255Z,4.5
2023-03-05T02:30:15.048Z,4.5
2023-03-05T02:31:18.117Z,4.5
2023-03-05T02:32:22.195Z,4.5
2023-03-05T02:33:25.796Z,4.6
2023-03-05T02:34:29.124Z,4.6
2023-03-05T02:35:32.206Z,4.5
2023-03-05T02:36:35.501Z,4.5
2023-03-05T02:37:39.365Z,4.6
2023-03-05T02:38:43.119Z,4.5
2023-03-05T02:39:46.211Z,4.5
2023-03-05T02:40:48.380Z,4.5
2023-03-05T02:41:52.061Z,4.5
2023-03-05T02:42:54.498Z,4.5
2023-03-05T02:43:57.749Z,4.5
2023-03-05T02:45:01.482Z,4.5
2023-03-05T02:46:04.662Z,4.5
2023-03-05T02:47:08.198Z,4.5
2023-03-05T02:48:10.716Z,4.5
2023-03-05T02:49:14.482Z,4.5
2023-03-05T02:50:17.892Z,4.5
2023-03-05T02:51:21.271Z,4.4
2023-03-05T02:52:24.990Z,4.4
2023-03-05T02:53:28.980Z,4.4
2023-03-05T02:54:32.423Z,4.4
2023-03-05T02:55:36.002Z,4.4
2023-03-05T02:56:39.454Z,4.4
2023-03-05T02:57:43.020Z,4.4
2023-03-05T02:58:45.850Z,4.4
2023-03-05T02:59:49.444Z,4.4
2023-03-05T03:00:52.833Z,4.4
2023-03-05T03:01:56.699Z,4.4
2023-03-05T03:03:00.333Z,4.3
2023-03-05T03:04:03.953Z,4.3
2023-03-05T03:05:06.973Z,4.3
2023-03-05T03:06:09.979Z,4.3
2023-03-05T03:07:12.782Z,4.3
2023-03-05T03:08:15.853Z,4.3
2023-03-05T03:09:19.411Z,4.3
2023-03-05T03:10:22.900Z,4.3
2023-03-05T03:11:25.714Z,4.3
2023-03-05T03:12:29.104Z,4.3
2023-03-05T03:13:32.198Z,4.3
2023-03-05T03:14:35.609Z,4.3
2023-03-05T03:15:38.670Z,4.3
2023-03-05T03:16:42.103Z,4.3
2023-03-05T03:17:45.026Z,4.3
2023-03-05T03:18:48.346Z,4.3
2023-03-05T03:19:52.246Z,4.3
2023-03-05T03:20:54.421Z,4.3
2023-03-05T03:21:56.975Z,4.3
2023-03-05T03:23:00.124Z,4.3
2023-03-05T03:24:03.858Z,4.3
2023-03-05T03:25:08.029Z,4.3
2023-03-05T03:26:11.395Z,4.3
2023-03-05T03:27:14.194Z,4.3
2023-03-05T03:28:17.613Z,4.2
2023-03-05T03:29:20.690Z,4.3
2023-03-05T03:30:23.240Z,4.3
2023-03-05T03:31:26.588Z,4.2
2023-03-05T03:32:29.981Z,4.2
2023-03-05T03:33:33.256Z,4.2
2023-03-05T03:34:36.709Z,4.2
2023-03-05T03:35:39.292Z,4.2
2023-03-05T03:36:42.724Z,4.2
2023-03-05T03:37:45.396Z,4.2
2023-03-05T03:38:48.104Z,4.2
2023-03-05T03:39:50.880Z,4.2
2023-03-05T03:40:54.735Z,4.2
2023-03-05T03:41:58.520Z,4.2
2023-03-05T03:43:01.658Z,4.1
2023-03-05T03:44:04.546Z,4.1
2023-03-05T03:45:08.326Z,4.1
2023-03-05T03:46:11.745Z,4.1
2023-03-05T03:47:14.795Z,4.1
2023-03-05T03:48:17.241Z,4.1
2023-03-05T03:49:20.624Z,4.1
2023-03-05T03:50:24.351Z,4.1
2023-03-05T03:51:27.329Z,4.1
2023-03-05T03:52:30.775Z,4.1
2023-03-05T03:53:34.612Z,4.1
2023-03-05T03:54:37.674Z,4.1
2023-03-05T03:55:40.655Z,4.1
2023-03-05T03:56:44.773Z,4.2
2023-03-05T03:57:47.946Z,4.1
2023-03-05T03:58:51.684Z,4.1
2023-03-05T03:59:55.108Z,4.1
2023-03-05T04:00:57.909Z,4.1
2023-03-05T04:02:00.729Z,4.1
2023-03-05T04:03:03.619Z,4.1
2023-03-05T04:04:06.641Z,4.1
2023-03-05T04:05:09.818Z,4.1
2023-03-05T04:06:12.687Z,4.1
2023-03-05T04:07:15.839Z,4
2023-03-05T04:08:18.916Z,4.1
2023-03-05T04:09:22.076Z,4.1
2023-03-05T04:10:24.784Z,4.1
2023-03-05T04:11:27.768Z,4.1
2023-03-05T04:12:31.662Z,4.1
2023-03-05T04:13:34.780Z,4.1
2023-03-05T04:14:37.996Z,4.1
2023-03-05T04:15:41.207Z,4.1
2023-03-05T04:16:44.656Z,4.1
2023-03-05T04:17:47.744Z,4.1
2023-03-05T04:18:51.205Z,4.1
2023-03-05T04:19:53.796Z,4.1
2023-03-05T04:20:55.961Z,4.1
2023-03-05T04:21:58.547Z,4.1
2023-03-05T04:23:02.027Z,4.1
2023-03-05T04:24:04.542Z,4.1
2023-03-05T04:25:07.875Z,4.1
2023-03-05T04:26:11.529Z,4.1
2023-03-05T04:27:14.266Z,4.1
2023-03-05T04:28:18.099Z,4.1
2023-03-05T04:29:21.405Z,4.1
2023-03-05T04:30:24.519Z,4
2023-03-05T04:31:27.507Z,4.1
2023-03-05T04:32:30.857Z,4
2023-03-05T04:33:34.194Z,4
2023-03-05T04:34:37.362Z,4
2023-03-05T04:35:40.369Z,4
2023-03-05T04:36:43.961Z,4
2023-03-05T04:37:46.549Z,4
2023-03-05T04:38:49.368Z,4
2023-03-05T04:39:51.951Z,4
2023-03-05T04:40:55.340Z,4
2023-03-05T04:41:57.778Z,4
2023-03-05T04:43:00.582Z,4
2023-03-05T04:44:04.454Z,4
2023-03-05T04:45:07.774Z,4
2023-03-05T04:46:10.327Z,3.9
2023-03-05T04:47:13.415Z,4
2023-03-05T04:48:15.842Z,4
2023-03-05T04:49:19.155Z,3.9
2023-03-05T04:50:22.285Z,4
2023-03-05T04:51:25.746Z,3.9
2023-03-05T04:52:28.835Z,4
2023-03-05T04:53:32.203Z,4
2023-03-05T04:54:34.919Z,4
2023-03-05T04:55:38.546Z,4
2023-03-05T04:56:41.453Z,4
2023-03-05T04:57:43.699Z,4
2023-03-05T04:58:46.968Z,4
2023-03-05T04:59:50.866Z,4
2023-03-05T05:00:54.069Z,4
2023-03-05T05:01:57.599Z,4
2023-03-05T05:03:00.814Z,4
2023-03-05T05:04:04.087Z,4
2023-03-05T05:05:06.550Z,4
2023-03-05T05:06:08.995Z,4
2023-03-05T05:07:12.790Z,4
2023-03-05T05:08:16.482Z,4
2023-03-05T05:09:20.121Z,4
2023-03-05T05:10:23.779Z,4
2023-03-05T05:11:26.931Z,4
2023-03-05T05:12:29.771Z,4
2023-03-05T05:13:32.763Z,4.1
2023-03-05T05:14:36.132Z,4.1
2023-03-05T05:15:40.090Z,4.1
2023-03-05T05:16:43.234Z,4.1
2023-03-05T05:17:46.874Z,4.1
2023-03-05T05:18:50.232Z,4.1
2023-03-05T05:19:53.028Z,4.1
2023-03-05T05:20:55.768Z,4.1
2023-03-05T05:21:58.948Z,4.1
2023-03-05T05:23:01.562Z,4.1
2023-03-05T05:24:04.654Z,4.1
2023-03-05T05:25:07.490Z,4.1
2023-03-05T05:26:11.222Z,4.2
2023-03-05T05:27:14.387Z,4.2
2023-03-05T05:28:17.388Z,4.2
2023-03-05T05:29:20.658Z,4.2
2023-03-05T05:30:23.201Z,4.2
2023-03-05T05:31:27.532Z,4.2
2023-03-05T05:32:31.460Z,4.2
2023-03-05T05:33:35.375Z,4.2
2023-03-05T05:34:38.841Z,4.2
2023-03-05T05:35:42.435Z,4.2
2023-03-05T05:36:45.671Z,4.2
2023-03-05T05:37:49.453Z,4.2
2023-03-05T05:38:53.157Z,4.3
2023-03-05T05:39:55.881Z,4.3
2023-03-05T05:40:59.046Z,4.3
2023-03-05T05:42:01.494Z,4.3
2023-03-05T05:43:04.825Z,4.2
2023-03-05T05:44:07.982Z,4.2
2023-03-05T05:45:11.550Z,4.2
2023-03-05T05:46:15.544Z,4.2
2023-03-05T05:47:19.908Z,4.3
2023-03-05T05:48:23.364Z,4.2
2023-03-05T05:49:26.704Z,4.2
2023-03-05T05:50:30.150Z,4.2
2023-03-05T05:51:32.902Z,4.2
2023-03-05T05:52:35.977Z,4.2
2023-03-05T05:53:39.098Z,4.2
2023-03-05T05:54:42.843Z,4.2
2023-03-05T05:55:46.108Z,4.2
2023-03-05T05:56:48.812Z,4.2
2023-03-05T05:57:51.884Z,4.2
2023-03-05T05:58:54.334Z,4.2
2023-03-05T05:59:58.146Z,4.2
2023-03-05T06:01:01.302Z,4.2
2023-03-05T06:02:04.880Z,4.2
2023-03-05T06:03:09.460Z,4.2
2023-03-05T06:04:12.535Z,4.3
2023-03-05T06:05:16.076Z,4.3
2023-03-05T06:06:19.483Z,4.3
2023-03-05T06:07:22.949Z,4.2
2023-03-05T06:08:26.004Z,4.2
2023-03-05T06:09:29.000Z,4.2
2023-03-05T06:10:32.160Z,4.2
2023-03-05T06:11:35.743Z,4.2
2023-03-05T06:12:38.452Z,4.2
2023-03-05T06:13:42.155Z,4.2
2023-03-05T06:14:45.189Z,4.2
2023-03-05T06:15:48.365Z,4.2
2023-03-05T06:16:51.650Z,4.2
2023-03-05T06:17:54.268Z,4.2
2023-03-05T06:18:58.115Z,4.2
2023-03-05T06:20:01.363Z,4.2
2023-03-05T06:21:04.664Z,4.2
2023-03-05T06:22:07.736Z,4.2
2023-03-05T06:23:10.517Z,4.2
2023-03-05T06:24:14.171Z,4.3
2023-03-05T06:25:17.261Z,4.3
2023-03-05T06:26:20.614Z,4.3
2023-03-05T06:27:23.864Z,4.3
2023-03-05T06:28:26.307Z,4.3
2023-03-05T06:29:29.315Z,4.3
2023-03-05T06:30:32.007Z,4.3
2023-03-05T06:31:37.954Z,4.3
2023-03-05T06:32:41.121Z,4.3
2023-03-05T06:33:43.849Z,4.4
2023-03-05T06:34:48.022Z,4.4
2023-03-05T06:35:51.344Z,4.4
2023-03-05T06:36:54.892Z,4.4
2023-03-05T06:37:57.315Z,4.4
2023-03-05T06:38:59.522Z,4.4
2023-03-05T06:40:02.693Z,4.4
2023-03-05T06:41:06.035Z,4.4
2023-03-05T06:42:08.933Z,4.4
2023-03-05T06:43:11.806Z,4.4
2023-03-05T06:44:15.199Z,4.4
2023-03-05T06:45:18.190Z,4.4
2023-03-05T06:46:21.155Z,4.4
2023-03-05T06:47:24.189Z,4.4
2023-03-05T06:48:27.088Z,4.5
2023-03-05T06:49:29.823Z,4.5
2023-03-05T06:50:33.661Z,4.5
2023-03-05T06:51:36.201Z,4.5
2023-03-05T06:52:38.991Z,4.5
2023-03-05T06:53:42.427Z,4.5
2023-03-05T06:54:45.472Z,4.5
2023-03-05T06:55:48.340Z,4.5
2023-03-05T06:56:51.739Z,4.5
2023-03-05T06:57:55.079Z,4.5
2023-03-05T06:58:57.942Z,4.5
2023-03-05T07:00:00.948Z,4.5
2023-03-05T07:01:03.702Z,4.5
2023-03-05T07:02:06.704Z,4.6
2023-03-05T07:03:09.603Z,4.6
2023-03-05T07:04:12.913Z,4.6
2023-03-05T07:05:16.951Z,4.6
2023-03-05T07:06:21.216Z,4.6
2023-03-05T07:07:24.272Z,4.6
2023-03-05T07:08:27.454Z,4.6
2023-03-05T07:09:30.779Z,4.6
2023-03-05T07:10:34.218Z,4.6
2023-03-05T07:11:37.320Z,4.6
2023-03-05T07:12:43.485Z,4.6
2023-03-05T07:13:47.085Z,4.6
2023-03-05T07:14:50.586Z,4.6
2023-03-05T07:15:53.992Z,4.6
2023-03-05T07:16:56.974Z,4.6
2023-03-05T07:18:00.181Z,4.6
2023-03-05T07:19:02.628Z,4.6
2023-03-05T07:20:05.777Z,4.6
2023-03-05T07:21:08.898Z,4.7
2023-03-05T07:22:13.034Z,4.7
2023-03-05T07:23:15.817Z,4.7
2023-03-05T07:24:18.816Z,4.7
2023-03-05T07:25:21.826Z,4.7
2023-03-05T07:26:24.531Z,4.7
2023-03-05T07:27:27.332Z,4.7
2023-03-05T07:28:30.060Z,4.7
2023-03-05T07:29:33.410Z,4.8
2023-03-05T07:30:36.337Z,4.8
2023-03-05T07:31:39.528Z,4.8
2023-03-05T07:32:41.853Z,4.8
2023-03-05T07:33:44.848Z,4.8
2023-03-05T07:34:47.574Z,4.8
2023-03-05T07:35:50.841Z,4.8
2023-03-05T07:36:54.774Z,4.9
2023-03-05T07:37:58.375Z,4.9
2023-03-05T07:39:01.842Z,4.9
2023-03-05T07:40:04.783Z,5
2023-03-05T07:41:07.588Z,5
2023-03-05T07:42:10.581Z,5
2023-03-05T07:43:14.092Z,5.1
2023-03-05T07:44:17.471Z,5.1
2023-03-05T07:45:20.357Z,5.1
2023-03-05T07:46:23.944Z,5.1
2023-03-05T07:47:26.629Z,5.2
2023-03-05T07:48:30.053Z,5.2
2023-03-05T07:49:33.409Z,5.3
2023-03-05T07:50:37.128Z,5.3
2023-03-05T07:51:39.899Z,5.4
2023-03-05T07:52:43.354Z,5.4
2023-03-05T07:53:47.291Z,5.4
2023-03-05T07:54:50.067Z,5.4
2023-03-05T07:55:53.124Z,5.5
2023-03-05T07:56:55.320Z,5.4
2023-03-05T07:57:58.047Z,5.4
2023-03-05T07:59:00.768Z,5.4
2023-03-05T08:00:04.584Z,5.4
2023-03-05T08:01:07.929Z,5.4
2023-03-05T08:02:11.496Z,5.4
2023-03-05T08:03:14.999Z,5.4
2023-03-05T08:04:18.760Z,5.5
2023-03-05T08:05:21.932Z,5.5
2023-03-05T08:06:25.551Z,5.5
2023-03-05T08:07:28.964Z,5.5
2023-03-05T08:08:32.347Z,5.5
2023-03-05T08:09:36.486Z,5.6
2023-03-05T08:10:39.575Z,5.6
2023-03-05T08:11:42.747Z,5.7
2023-03-05T08:12:45.560Z,5.7
2023-03-05T08:13:48.844Z,5.7
2023-03-05T08:14:51.902Z,5.8
2023-03-05T08:15:55.254Z,5.8
2023-03-05T08:16:58.197Z,5.9
2023-03-05T08:18:01.556Z,5.9
2023-03-05T08:19:04.347Z,5.9
2023-03-05T08:20:06.864Z,5.9
2023-03-05T08:21:09.666Z,5.9
2023-03-05T08:22:12.208Z,5.9
2023-03-05T08:23:15.298Z,5.9
2023-03-05T08:24:18.114Z,6
2023-03-05T08:25:21.716Z,6
2023-03-05T08:26:25.788Z,6.1
2023-03-05T08:27:28.221Z,6.1
2023-03-05T08:28:34.957Z,6.1
2023-03-05T08:29:38.132Z,6.2
2023-03-05T08:30:40.846Z,6.2
2023-03-05T08:31:43.776Z,6.2
2023-03-05T08:32:46.700Z,6.2
2023-03-05T08:33:50.034Z,6.3
2023-03-05T08:34:53.430Z,6.3
2023-03-05T08:35:56.753Z,6.3
2023-03-05T08:37:00.770Z,6.4
2023-03-05T08:38:03.328Z,6.4
2023-03-05T08:39:06.962Z,6.4
2023-03-05T08:40:10.024Z,6.5
2023-03-05T08:41:14.179Z,6.5
2023-03-05T08:42:17.290Z,6.6
2023-03-05T08:43:20.734Z,6.6
2023-03-05T08:44:23.546Z,6.7
2023-03-05T08:45:26.915Z,6.7
2023-03-05T08:46:30.174Z,6.7
2023-03-05T08:47:33.128Z,6.7
2023-03-05T08:48:36.076Z,6.7
2023-03-05T08:49:39.155Z,6.7
2023-03-05T08:50:41.967Z,6.7
2023-03-05T08:51:44.860Z,6.7
2023-03-05T08:52:47.696Z,6.7
2023-03-05T08:53:50.598Z,6.7
2023-03-05T08:54:53.671Z,6.7
2023-03-05T08:55:56.450Z,6.7
2023-03-05T08:57:00.635Z,6.6
2023-03-05T08:58:03.930Z,6.6
2023-03-05T08:59:06.780Z,6.6
2023-03-05T09:00:09.503Z,6.6
2023-03-05T09:01:12.850Z,6.6
2023-03-05T09:02:15.839Z,6.6
2023-03-05T09:03:19.221Z,6.6
2023-03-05T09:04:22.536Z,6.6
2023-03-05T09:05:25.060Z,6.5
2023-03-05T09:06:28.093Z,6.5
2023-03-05T09:07:31.472Z,6.5
2023-03-05T09:08:34.382Z,6.5
2023-03-05T09:09:37.400Z,6.5
2023-03-05T09:10:40.818Z,6.5
2023-03-05T09:11:44.019Z,6.5
2023-03-05T09:12:48.235Z,6.6
2023-03-05T09:13:50.807Z,6.6
2023-03-05T09:14:53.885Z,6.7
2023-03-05T09:15:57.502Z,6.8
2023-03-05T09:17:00.526Z,6.8
2023-03-05T09:18:02.979Z,6.9
2023-03-05T09:19:06.066Z,7
2023-03-05T09:20:08.840Z,7.1
2023-03-05T09:21:12.111Z,7.1
2023-03-05T09:22:15.099Z,7.1
2023-03-05T09:23:18.156Z,7.2
2023-03-05T09:24:21.596Z,7.2
2023-03-05T09:25:24.651Z,7.3
2023-03-05T09:26:27.096Z,7.4
2023-03-05T09:27:30.530Z,7.4
2023-03-05T09:28:34.660Z,7.4
2023-03-05T09:29:38.352Z,7.5
2023-03-05T09:30:45.254Z,7.5
2023-03-05T09:31:49.047Z,7.5
2023-03-05T09:32:51.875Z,7.6
2023-03-05T09:33:55.607Z,7.6
2023-03-05T09:34:58.387Z,7.6
2023-03-05T09:36:01.826Z,7.6
2023-03-05T09:37:04.766Z,7.6
2023-03-05T09:38:07.592Z,7.6
2023-03-05T09:39:11.342Z,7.6
2023-03-05T09:40:14.071Z,7.7
2023-03-05T09:41:17.005Z,7.7
2023-03-05T09:42:20.745Z,7.7
2023-03-05T09:43:23.749Z,7.8
2023-03-05T09:44:27.867Z,7.9
2023-03-05T09:45:31.068Z,7.9
2023-03-05T09:46:34.520Z,8
2023-03-05T09:47:37.517Z,8
2023-03-05T09:48:40.267Z,8.1
2023-03-05T09:49:43.355Z,8.1
2023-03-05T09:50:46.408Z,8.1
2023-03-05T09:51:49.389Z,8.1
2023-03-05T09:52:52.100Z,8.1
2023-03-05T09:53:54.819Z,8.1
2023-03-05T09:54:57.896Z,8.1
2023-03-05T09:56:01.249Z,8
2023-03-05T09:57:04.372Z,8
2023-03-05T09:58:07.861Z,8
2023-03-05T09:59:10.930Z,7.9
2023-03-05T10:00:15.050Z,7.9
2023-03-05T10:01:18.311Z,7.8
2023-03-05T10:02:21.771Z,7.8
2023-03-05T10:03:24.710Z,7.8
2023-03-05T10:04:27.732Z,7.8
2023-03-05T10:05:30.910Z,7.8
2023-03-05T10:06:33.766Z,7.7
2023-03-05T10:07:36.468Z,7.7
2023-03-05T10:08:39.936Z,7.7
2023-03-05T10:09:42.909Z,7.7
2023-03-05T10:10:46.146Z,7.6
2023-03-05T10:11:49.765Z,7.6
2023-03-05T10:12:52.546Z,7.7
2023-03-05T10:13:55.615Z,7.7
2023-03-05T10:14:58.590Z,7.7
2023-03-05T10:16:02.160Z,7.8
2023-03-05T10:17:05.316Z,7.8
2023-03-05T10:18:08.389Z,7.9
2023-03-05T10:19:10.980Z,7.9
2023-03-05T10:20:13.768Z,8
2023-03-05T10:21:16.198Z,8
2023-03-05T10:22:19.566Z,8.1
2023-03-05T10:23:22.819Z,8.1
2023-03-05T10:24:25.243Z,8.1
2023-03-05T10:25:29.264Z,8.1
2023-03-05T10:26:32.394Z,8.1
2023-03-05T10:27:35.129Z,8.1
2023-03-05T10:28:39.834Z,8
2023-03-05T10:29:42.567Z,8
2023-03-05T10:30:45.922Z,8
2023-03-05T10:31:50.287Z,8
2023-03-05T10:32:53.873Z,8
2023-03-05T10:33:56.590Z,7.9
2023-03-05T10:35:00.136Z,7.9
2023-03-05T10:36:03.245Z,7.9
2023-03-05T10:37:06.243Z,7.8
2023-03-05T10:38:09.993Z,7.8
2023-03-05T10:39:13.108Z,7.8
2023-03-05T10:40:15.818Z,7.8
2023-03-05T10:41:19.430Z,7.7
2023-03-05T10:42:22.779Z,7.7
2023-03-05T10:43:25.678Z,7.7
2023-03-05T10:44:28.427Z,7.6
2023-03-05T10:45:31.882Z,7.6
2023-03-05T10:46:34.952Z,7.6
2023-03-05T10:47:39.083Z,7.5
2023-03-05T10:48:42.889Z,7.5
2023-03-05T10:49:46.621Z,7.5
2023-03-05T10:50:49.842Z,7.4
2023-03-05T10:51:52.736Z,7.4
2023-03-05T10:52:55.829Z,7.4
2023-03-05T10:53:58.799Z,7.4
2023-03-05T10:55:02.086Z,7.4
2023-03-05T10:56:05.630Z,7.5
2023-03-05T10:57:08.415Z,7.5
2023-03-05T10:58:12.486Z,7.5
2023-03-05T10:59:15.828Z,7.5
2023-03-05T11:00:19.014Z,7.5
2023-03-05T11:01:23.035Z,7.5
2023-03-05T11:02:27.325Z,7.5
2023-03-05T11:03:31.540Z,7.5
2023-03-05T11:04:34.936Z,7.5
2023-03-05T11:05:38.579Z,7.5
2023-03-05T11:06:42.351Z,7.5
2023-03-05T11:07:45.400Z,7.5
2023-03-05T11:08:48.505Z,7.5
2023-03-05T11:09:51.426Z,7.5
2023-03-05T11:10:54.206Z,7.4
2023-03-05T11:11:57.287Z,7.4
2023-03-05T11:12:59.820Z,7.4
2023-03-05T11:14:03.622Z,7.4
2023-03-05T11:15:06.738Z,7.3
2023-03-05T11:16:09.912Z,7.3
2023-03-05T11:17:13.333Z,7.3
2023-03-05T11:18:16.799Z,7.3
2023-03-05T11:19:20.761Z,7.2
2023-03-05T11:20:24.276Z,7.2
2023-03-05T11:21:28.146Z,7.2
2023-03-05T11:22:31.528Z,7.2
2023-03-05T11:23:34.873Z,7.2
2023-03-05T11:24:37.904Z,7.1
2023-03-05T11:25:40.420Z,7.1
2023-03-05T11:26:43.293Z,7.1
2023-03-05T11:27:45.814Z,7.1
2023-03-05T11:28:53.184Z,7.1
2023-03-05T11:29:56.212Z,7.1
2023-03-05T11:30:59.052Z,7.1
2023-03-05T11:32:02.116Z,7.1
2023-03-05T11:33:05.873Z,7.1
2023-03-05T11:34:12.407Z,7
2023-03-05T11:35:16.221Z,7.1
2023-03-05T11:36:19.046Z,7.1
2023-03-05T11:37:22.013Z,7.1
2023-03-05T11:38:25.518Z,7.1
2023-03-05T11:39:28.706Z,7.1
2023-03-05T11:40:31.781Z,7.1
2023-03-05T11:41:34.882Z,7.1
2023-03-05T11:42:38.104Z,7.1
2023-03-05T11:43:41.728Z,7.1
2023-03-05T11:44:45.079Z,7.1
2023-03-05T11:45:48.707Z,7.2
2023-03-05T11:46:51.938Z,7.2
2023-03-05T11:47:55.316Z,7.2
2023-03-05T11:48:58.837Z,7.2
2023-03-05T11:50:02.401Z,7.2
2023-03-05T11:51:06.463Z,7.2
2023-03-05T11:52:09.876Z,7.2
2023-03-05T11:53:13.038Z,7.2
2023-03-05T11:54:15.787Z,7.2
2023-03-05T11:55:19.003Z,7.2
2023-03-05T11:56:21.753Z,7.2
2023-03-05T11:57:24.574Z,7.1
2023-03-05T11:58:27.476Z,7.1
2023-03-05T11:59:31.307Z,7.1
2023-03-05T12:00:34.099Z,7
2023-03-05T12:01:37.819Z,7
2023-03-05T12:02:40.743Z,7
2023-03-05T12:03:44.118Z,7
2023-03-05T12:04:47.788Z,7
2023-03-05T12:05:50.644Z,7
2023-03-05T12:06:54.761Z,7
2023-03-05T12:07:57.836Z,7
2023-03-05T12:09:00.820Z,7
2023-03-05T12:10:04.309Z,7
2023-03-05T12:11:07.501Z,7
2023-03-05T12:12:10.510Z,7
2023-03-05T12:13:13.613Z,7
2023-03-05T12:14:17.059Z,7
2023-03-05T12:15:20.336Z,7
2023-03-05T12:16:23.662Z,7
2023-03-05T12:17:27.117Z,7
2023-03-05T12:18:30.573Z,7
2023-03-05T12:19:34.273Z,7
2023-03-05T12:20:38.289Z,7
2023-03-05T12:21:42.270Z,7
2023-03-05T12:22:46.988Z,7
2023-03-05T12:23:50.178Z,7
2023-03-05T12:24:53.066Z,7
2023-03-05T12:25:56.813Z,7
2023-03-05T12:26:59.346Z,7
2023-03-05T12:28:02.336Z,7
2023-03-05T12:29:06.044Z,7
2023-03-05T12:30:09.213Z,7
2023-03-05T12:31:12.301Z,7
2023-03-05T12:32:15.576Z,7
2023-03-05T12:33:18.693Z,7.1
2023-03-05T12:34:22.409Z,7.1
2023-03-05T12:35:25.746Z,7.1
2023-03-05T12:36:28.351Z,7.2
2023-03-05T12:37:32.153Z,7.2
2023-03-05T12:38:36.261Z,7.3
2023-03-05T12:39:39.388Z,7.3
2023-03-05T12:40:43.986Z,7.4
2023-03-05T12:41:47.788Z,7.4
2023-03-05T12:42:50.709Z,7.5
2023-03-05T12:43:53.803Z,7.5
2023-03-05T12:44:57.228Z,7.6
2023-03-05T12:46:00.001Z,7.7
2023-03-05T12:47:03.178Z,7.7
2023-03-05T12:48:06.191Z,7.8
2023-03-05T12:49:09.634Z,7.8
2023-03-05T12:50:12.633Z,7.9
2023-03-05T12:51:16.195Z,7.9
2023-03-05T12:52:19.377Z,7.9
2023-03-05T12:53:22.947Z,7.9
2023-03-05T12:54:27.053Z,7.9
2023-03-05T12:55:30.153Z,7.9
2023-03-05T12:56:33.802Z,7.9
2023-03-05T12:57:37.263Z,7.9
2023-03-05T12:58:40.351Z,7.8
2023-03-05T12:59:43.648Z,7.8
2023-03-05T13:00:47.177Z,7.8
2023-03-05T13:01:51.011Z,7.8
2023-03-05T13:02:54.631Z,7.8
2023-03-05T13:03:57.902Z,7.8
2023-03-05T13:05:01.310Z,7.8
2023-03-05T13:06:04.852Z,7.7
2023-03-05T13:07:08.476Z,7.7
2023-03-05T13:08:16.021Z,7.7
2023-03-05T13:09:19.579Z,7.7
2023-03-05T13:10:23.899Z,7.7
2023-03-05T13:11:27.409Z,7.6
2023-03-05T13:12:30.681Z,7.6
2023-03-05T13:13:33.391Z,7.6
2023-03-05T13:14:36.479Z,7.6
2023-03-05T13:15:39.608Z,7.6
2023-03-05T13:16:43.104Z,7.6
2023-03-05T13:17:46.527Z,7.7
2023-03-05T13:18:49.492Z,7.7
2023-03-05T13:19:52.504Z,7.7
2023-03-05T13:20:55.628Z,7.7
2023-03-05T13:21:58.158Z,7.7
2023-03-05T13:23:01.893Z,7.7
2023-03-05T13:24:04.932Z,7.8
2023-03-05T13:25:07.724Z,7.8
2023-03-05T13:26:11.639Z,7.8
2023-03-05T13:27:15.195Z,7.9
2023-03-05T13:28:18.584Z,7.9
2023-03-05T13:29:22.316Z,8
2023-03-05T13:30:25.729Z,8
2023-03-05T13:31:28.607Z,8
2023-03-05T13:32:32.434Z,8
2023-03-05T13:33:35.774Z,8.1
2023-03-05T13:34:48.481Z,8.1
2023-03-05T13:35:54.911Z,8.1
2023-03-05T13:36:58.448Z,8.1
2023-03-05T13:38:02.846Z,8.2
2023-03-05T13:39:06.554Z,8.2
2023-03-05T13:40:09.738Z,8.2
2023-03-05T13:41:13.778Z,8.2
2023-03-05T13:42:18.957Z,8.2
2023-03-05T13:43:22.803Z,8.2
2023-03-05T13:44:26.055Z,8.2
2023-03-05T13:45:29.256Z,8.1
2023-03-05T13:46:33.261Z,8.1
2023-03-05T13:47:36.664Z,8.1
2023-03-05T13:48:39.902Z,8.1
2023-03-05T13:49:43.565Z,8
2023-03-05T13:50:46.573Z,8
2023-03-05T13:51:49.697Z,8
2023-03-05T13:52:53.057Z,8
2023-03-05T13:53:56.151Z,8
2023-03-05T13:54:59.455Z,8
2023-03-05T13:56:02.001Z,7.9
2023-03-05T13:57:06.155Z,7.9
2023-03-05T13:58:09.387Z,7.9
2023-03-05T13:59:12.814Z,7.9
2023-03-05T14:00:16.875Z,7.8
2023-03-05T14:01:21.222Z,7.8
2023-03-05T14:02:24.723Z,7.8
2023-03-05T14:03:29.397Z,7.8
2023-03-05T14:04:32.849Z,7.8
2023-03-05T14:05:35.479Z,7.8
2023-03-05T14:06:38.682Z,7.8
2023-03-05T14:07:42.640Z,7.8
2023-03-05T14:08:45.638Z,7.8
2023-03-05T14:09:48.354Z,7.8
2023-03-05T14:10:51.418Z,7.7
2023-03-05T14:11:54.194Z,7.8
2023-03-05T14:12:57.755Z,7.7
2023-03-05T14:14:01.001Z,7.7
2023-03-05T14:15:04.105Z,7.7
2023-03-05T14:16:07.609Z,7.7
2023-03-05T14:17:11.443Z,7.7
2023-03-05T14:18:15.114Z,7.7
2023-03-05T14:19:19.776Z,7.7
2023-03-05T14:20:23.454Z,7.7
2023-03-05T14:21:27.366Z,7.7
2023-03-05T14:22:30.487Z,7.7
2023-03-05T14:23:33.235Z,7.8
2023-03-05T14:24:37.939Z,7.8
2023-03-05T14:25:41.802Z,7.9
2023-03-05T14:26:45.819Z,8
2023-03-05T14:27:49.351Z,8.2
2023-03-05T14:28:53.427Z,8.3
2023-03-05T14:29:57.234Z,8.4
2023-03-05T14:31:00.216Z,8.5
2023-03-05T14:32:03.816Z,8.6
2023-03-05T14:33:07.794Z,8.7
2023-03-05T14:34:11.666Z,8.7
2023-03-05T14:35:14.691Z,8.7
2023-03-05T14:36:18.075Z,8.7
2023-03-05T14:37:21.422Z,8.7
2023-03-05T14:38:25.034Z,8.7
2023-03-05T14:39:29.691Z,8.7
2023-03-05T14:40:33.122Z,8.7
2023-03-05T14:41:36.973Z,8.7
2023-03-05T14:42:40.743Z,8.7